Time;durP1;ratioP1;P1;durP2;ratioP2;P2;SDS_P1;SDS_P2;PMS_P1;PMS_P2;Temp;Humidity;BMP_temperature;BMP_pressure;BME280_temperature;BME280_humidity;BME280_pressure;Samples;Min_cycle;Max_cycle;Signal;HPM_P1;HPM_P2
2022/04/18 00:01:27;;;;;;;;;;;23.70;41.10;;;;;;1489408;79;716;-58
2022/04/18 00:03:29;;;;;;;;;;;23.70;41.20;;;;;;1496888;79;668;-57
2022/04/18 00:05:31;;;;;;;;;;;23.80;40.90;;;;;;1482755;78;672;-57
2022/04/18 00:07:33;;;;;;;;;;;23.80;40.90;;;;;;1514210;77;753;-59
2022/04/18 00:09:35;;;;;;;;;;;23.90;41.00;;;;;;1508896;77;1105;-56
2022/04/18 00:11:37;;;;;;;;;;;23.80;40.90;;;;;;1496215;79;661;-57
2022/04/18 00:13:39;;;;;;;;;;;23.80;40.80;;;;;;1482824;78;688;-57
2022/04/18 00:15:40;;;;;;;;;;;23.90;41.00;;;;;;1507424;79;698;-56
2022/04/18 00:17:43;;;;;;;;;;;23.90;41.00;;;;;;1506850;77;1933;-59
2022/04/18 00:19:44;;;;;;;;;;;23.80;40.90;;;;;;1494655;79;1133;-57
2022/04/18 00:21:46;;;;;;;;;;;23.70;40.90;;;;;;1485032;79;721;-58
2022/04/18 00:23:48;;;;;;;;;;;23.90;41.00;;;;;;1511812;78;725;-56
2022/04/18 00:25:50;;;;;;;;;;;23.80;41.00;;;;;;1511212;78;695;-57
2022/04/18 00:27:52;;;;;;;;;;;23.80;41.10;;;;;;1501801;78;698;-56
2022/04/18 00:29:54;;;;;;;;;;;23.80;41.10;;;;;;1502113;78;1184;-58
2022/04/18 00:31:56;;;;;;;;;;;23.80;41.20;;;;;;1504162;78;769;-57
2022/04/18 00:33:58;;;;;;;;;;;23.90;41.10;;;;;;1497421;78;834;-57
2022/04/18 00:36:00;;;;;;;;;;;23.90;41.10;;;;;;1504038;78;705;-57
2022/04/18 00:38:02;;;;;;;;;;;23.70;41.10;;;;;;1502134;78;1931;-57
2022/04/18 00:40:04;;;;;;;;;;;23.80;41.10;;;;;;1510784;78;1144;-57
2022/04/18 00:42:06;;;;;;;;;;;23.90;41.10;;;;;;1500452;78;715;-57
2022/04/18 00:44:08;;;;;;;;;;;23.90;41.20;;;;;;1505259;78;689;-56
2022/04/18 00:46:09;;;;;;;;;;;23.90;41.00;;;;;;1508932;78;682;-55
2022/04/18 00:48:11;;;;;;;;;;;24.00;41.10;;;;;;1505317;78;708;-56
2022/04/18 00:50:13;;;;;;;;;;;23.90;41.20;;;;;;1494812;78;1125;-56
2022/04/18 00:52:16;;;;;;;;;;;23.70;41.50;;;;;;1512141;78;695;-57
2022/04/18 00:54:18;;;;;;;;;;;23.80;41.50;;;;;;1506974;78;723;-55
2022/04/18 00:56:20;;;;;;;;;;;23.80;41.30;;;;;;1506089;78;749;-57
2022/04/18 00:58:21;;;;;;;;;;;23.80;41.30;;;;;;1502121;78;1945;-57
2022/04/18 01:00:23;;;;;;;;;;;23.70;41.40;;;;;;1498331;78;1094;-58
2022/04/18 01:02:25;;;;;;;;;;;23.80;41.40;;;;;;1502696;78;707;-57
2022/04/18 01:04:27;;;;;;;;;;;23.80;41.20;;;;;;1501670;78;689;-57
2022/04/18 01:06:29;;;;;;;;;;;23.90;41.40;;;;;;1503189;78;1016;-58
2022/04/18 01:08:33;;;;;;;;;;;23.80;41.30;;;;;;1513668;77;227536;-62
2022/04/18 01:10:35;;;;;;;;;;;23.80;41.30;;;;;;1517835;77;1019;-61
2022/04/18 01:12:38;;;;;;;;;;;23.80;41.40;;;;;;1522663;77;676;-62
2022/04/18 01:14:42;;;;;;;;;;;23.70;41.50;;;;;;1521258;77;723;-65
2022/04/18 01:16:43;;;;;;;;;;;23.80;41.60;;;;;;1513648;77;1838;-64
2022/04/18 01:18:45;;;;;;;;;;;23.80;41.50;;;;;;1507507;77;1950;-63
2022/04/18 01:20:47;;;;;;;;;;;23.80;41.50;;;;;;1519413;77;663;-62
2022/04/18 01:22:52;;;;;;;;;;;23.80;41.40;;;;;;1542607;76;700;-61
2022/04/18 01:29:35;;;;;;;;;;;23.70;41.60;;;;;;1528809;77;719;-62
2022/04/18 01:31:38;;;;;;;;;;;23.70;41.50;;;;;;1492660;79;704;-63
2022/04/18 01:33:40;;;;;;;;;;;23.70;41.50;;;;;;1531868;77;733;-63
2022/04/18 01:35:42;;;;;;;;;;;23.70;41.50;;;;;;1543999;76;693;-64
2022/04/18 01:37:43;;;;;;;;;;;23.70;41.40;;;;;;1538692;76;1972;-63
2022/04/18 01:39:45;;;;;;;;;;;23.70;41.40;;;;;;1547471;76;703;-62
2022/04/18 01:41:47;;;;;;;;;;;23.70;41.40;;;;;;1542894;76;678;-62
2022/04/18 01:43:49;;;;;;;;;;;23.70;41.40;;;;;;1533773;76;678;-62
2022/04/18 01:45:51;;;;;;;;;;;23.70;41.40;;;;;;1532456;76;742;-62
2022/04/18 01:47:53;;;;;;;;;;;23.60;41.30;;;;;;1537978;76;1133;-61
2022/04/18 01:49:55;;;;;;;;;;;23.70;41.50;;;;;;1538935;76;794;-64
2022/04/18 01:51:56;;;;;;;;;;;23.70;41.40;;;;;;1488769;78;722;-62
2022/04/18 01:53:58;;;;;;;;;;;23.70;41.30;;;;;;1502681;79;689;-64
2022/04/18 01:56:00;;;;;;;;;;;23.70;41.20;;;;;;1521202;77;712;-61
2022/04/18 01:58:05;;;;;;;;;;;23.80;41.10;;;;;;1535063;76;1952;-61
2022/04/18 02:00:06;;;;;;;;;;;23.80;41.10;;;;;;1538344;76;1724;-62
2022/04/18 02:02:08;;;;;;;;;;;23.80;41.00;;;;;;1546388;76;728;-62
2022/04/18 02:04:10;;;;;;;;;;;23.80;41.00;;;;;;1503419;78;747;-62
2022/04/18 02:06:12;;;;;;;;;;;23.80;41.00;;;;;;1546942;76;708;-65
2022/04/18 02:08:14;;;;;;;;;;;23.90;41.20;;;;;;1532562;76;1129;-62
2022/04/18 02:10:16;;;;;;;;;;;23.80;41.00;;;;;;1573897;75;700;-65
2022/04/18 02:12:17;;;;;;;;;;;23.80;41.00;;;;;;1580422;75;701;-61
2022/04/18 02:14:19;;;;;;;;;;;23.70;41.20;;;;;;1567516;75;625;-62
2022/04/18 02:16:21;;;;;;;;;;;23.80;41.10;;;;;;1569409;75;705;-62
2022/04/18 02:18:23;;;;;;;;;;;23.80;41.10;;;;;;1574462;75;1948;-62
2022/04/18 02:20:25;;;;;;;;;;;23.70;41.10;;;;;;1575131;75;747;-63
2022/04/18 02:22:27;;;;;;;;;;;23.70;41.20;;;;;;1569487;75;739;-64
2022/04/18 02:24:29;;;;;;;;;;;23.70;41.20;;;;;;1577035;75;749;-64
2022/04/18 02:26:31;;;;;;;;;;;23.80;41.30;;;;;;1571828;75;708;-62
2022/04/18 02:28:33;;;;;;;;;;;23.80;41.30;;;;;;1567703;75;1136;-62
2022/04/18 02:30:35;;;;;;;;;;;23.70;41.40;;;;;;1563245;75;903;-61
2022/04/18 02:32:50;;;;;;;;;;;23.70;41.70;;;;;;1574549;75;768;-62
2022/04/18 02:34:52;;;;;;;;;;;23.60;41.80;;;;;;1579713;75;748;-63
2022/04/18 02:36:53;;;;;;;;;;;23.60;42.30;;;;;;1578531;75;682;-62
2022/04/18 02:38:55;;;;;;;;;;;23.40;42.40;;;;;;1576970;75;1935;-65
2022/04/18 02:40:57;;;;;;;;;;;23.40;42.90;;;;;;1570406;75;1013;-62
2022/04/18 02:42:59;;;;;;;;;;;23.40;43.20;;;;;;1577061;75;692;-64
2022/04/18 02:45:01;;;;;;;;;;;23.40;43.50;;;;;;1569496;75;601;-64
2022/04/18 02:47:03;;;;;;;;;;;23.40;43.60;;;;;;1559783;75;1156;-65
2022/04/18 02:49:05;;;;;;;;;;;23.30;43.60;;;;;;1563186;75;677;-62
2022/04/18 02:51:06;;;;;;;;;;;23.30;43.60;;;;;;1562953;75;733;-61
2022/04/18 02:53:08;;;;;;;;;;;23.40;43.60;;;;;;1563310;75;764;-61
2022/04/18 02:55:11;;;;;;;;;;;23.30;43.60;;;;;;1572485;75;745;-62
2022/04/18 02:57:13;;;;;;;;;;;23.30;43.60;;;;;;1578935;75;1147;-61
2022/04/18 02:59:15;;;;;;;;;;;23.30;43.70;;;;;;1578343;75;1947;-62
2022/04/18 03:01:17;;;;;;;;;;;23.30;43.70;;;;;;1565737;75;664;-63
2022/04/18 03:03:19;;;;;;;;;;;23.40;43.60;;;;;;1577700;75;715;-64
2022/04/18 03:05:21;;;;;;;;;;;23.30;43.60;;;;;;1578348;75;704;-62
2022/04/18 03:07:22;;;;;;;;;;;23.30;43.50;;;;;;1573494;75;1082;-63
2022/04/18 03:09:24;;;;;;;;;;;23.30;43.40;;;;;;1566666;75;778;-64
2022/04/18 03:11:26;;;;;;;;;;;23.30;43.40;;;;;;1559915;75;641;-61
2022/04/18 03:13:28;;;;;;;;;;;23.40;43.40;;;;;;1562459;75;728;-61
2022/04/18 03:15:30;;;;;;;;;;;23.30;43.40;;;;;;1566725;75;682;-62
2022/04/18 03:17:32;;;;;;;;;;;23.30;43.30;;;;;;1563046;75;1160;-62
2022/04/18 03:19:34;;;;;;;;;;;23.40;43.40;;;;;;1564321;75;1994;-62
2022/04/18 03:21:36;;;;;;;;;;;23.40;43.30;;;;;;1564630;75;686;-63
2022/04/18 03:23:38;;;;;;;;;;;23.40;43.30;;;;;;1558711;75;557;-63
2022/04/18 03:25:40;;;;;;;;;;;23.40;43.40;;;;;;1559207;75;679;-63
2022/04/18 03:27:41;;;;;;;;;;;23.40;43.30;;;;;;1553309;75;1134;-63
2022/04/18 03:29:43;;;;;;;;;;;23.50;43.40;;;;;;1552351;76;687;-62
2022/04/18 03:31:45;;;;;;;;;;;23.40;43.20;;;;;;1550499;75;718;-63
2022/04/18 03:33:47;;;;;;;;;;;23.50;43.40;;;;;;1551517;76;752;-62
2022/04/18 03:40:28;;;;;;;;;;;23.60;43.40;;;;;;1564497;76;712;-62
2022/04/18 03:42:31;;;;;;;;;;;23.50;43.40;;;;;;1564614;76;687;-61
2022/04/18 03:44:33;;;;;;;;;;;23.50;43.40;;;;;;1564306;76;701;-67
2022/04/18 03:46:35;;;;;;;;;;;23.50;43.40;;;;;;1564455;76;764;-62
2022/04/18 03:48:37;;;;;;;;;;;23.50;43.30;;;;;;1564549;76;1141;-62
2022/04/18 03:50:39;;;;;;;;;;;23.60;43.40;;;;;;1564618;76;653;-62
2022/04/18 03:52:41;;;;;;;;;;;23.60;43.30;;;;;;1564254;76;708;-62
2022/04/18 03:54:46;;;;;;;;;;;23.60;43.30;;;;;;1564317;76;671;-67
2022/04/18 03:56:48;;;;;;;;;;;23.50;43.30;;;;;;1564211;76;760;-65
2022/04/18 03:58:50;;;;;;;;;;;23.50;43.40;;;;;;1564440;76;1959;-62
2022/04/18 04:00:52;;;;;;;;;;;23.50;43.40;;;;;;1568413;75;667;-62
2022/04/18 04:02:53;;;;;;;;;;;23.50;43.30;;;;;;1563174;75;745;-63
2022/04/18 04:04:55;;;;;;;;;;;23.60;43.20;;;;;;1557919;75;733;-63
2022/04/18 04:06:57;;;;;;;;;;;23.50;43.40;;;;;;1557160;75;771;-65
2022/04/18 04:08:59;;;;;;;;;;;23.50;43.50;;;;;;1565638;75;797;-64
2022/04/18 04:11:01;;;;;;;;;;;23.60;43.60;;;;;;1559037;75;700;-63
2022/04/18 04:13:03;;;;;;;;;;;23.60;43.40;;;;;;1554885;75;695;-62
2022/04/18 04:15:05;;;;;;;;;;;23.50;43.40;;;;;;1558006;75;709;-62
2022/04/18 04:17:07;;;;;;;;;;;23.50;43.40;;;;;;1566782;75;1145;-62
2022/04/18 04:19:09;;;;;;;;;;;23.50;43.30;;;;;;1545916;75;1932;-62
2022/04/18 04:21:11;;;;;;;;;;;23.50;43.20;;;;;;1556500;75;755;-62
2022/04/18 04:23:13;;;;;;;;;;;23.60;43.20;;;;;;1552842;75;688;-65
2022/04/18 04:25:16;;;;;;;;;;;23.50;43.20;;;;;;1558711;75;750;-62
2022/04/18 04:27:18;;;;;;;;;;;23.50;43.20;;;;;;1548368;75;1543;-65
2022/04/18 04:29:20;;;;;;;;;;;23.50;43.20;;;;;;1555261;75;731;-63
2022/04/18 04:31:22;;;;;;;;;;;23.50;43.20;;;;;;1553182;75;710;-62
2022/04/18 04:33:24;;;;;;;;;;;23.60;43.10;;;;;;1552950;75;710;-63
2022/04/18 04:35:25;;;;;;;;;;;23.60;43.20;;;;;;1552694;75;677;-62
2022/04/18 04:37:27;;;;;;;;;;;23.60;43.10;;;;;;1555351;75;1190;-63
2022/04/18 04:39:29;;;;;;;;;;;23.60;43.10;;;;;;1556395;75;1935;-63
2022/04/18 04:41:31;;;;;;;;;;;23.50;43.00;;;;;;1557527;75;762;-65
2022/04/18 04:43:33;;;;;;;;;;;23.60;43.10;;;;;;1553954;75;734;-64
2022/04/18 04:45:35;;;;;;;;;;;23.60;43.10;;;;;;1566002;75;745;-63
2022/04/18 04:47:37;;;;;;;;;;;23.60;43.00;;;;;;1573034;75;1142;-62
2022/04/18 04:49:39;;;;;;;;;;;23.70;43.10;;;;;;1558244;75;672;-61
2022/04/18 04:51:42;;;;;;;;;;;23.60;43.00;;;;;;1566593;75;702;-61
2022/04/18 04:53:44;;;;;;;;;;;23.60;43.20;;;;;;1564602;75;732;-61
2022/04/18 04:55:46;;;;;;;;;;;23.50;43.10;;;;;;1557662;75;745;-62
2022/04/18 04:57:48;;;;;;;;;;;23.60;43.10;;;;;;1559221;75;1138;-63
2022/04/18 04:59:50;;;;;;;;;;;23.60;43.00;;;;;;1556022;75;1927;-63
2022/04/18 05:01:52;;;;;;;;;;;23.60;43.00;;;;;;1558733;75;761;-62
2022/04/18 05:03:53;;;;;;;;;;;23.60;43.00;;;;;;1553857;75;731;-63
2022/04/18 05:05:55;;;;;;;;;;;23.60;42.90;;;;;;1564719;75;680;-61
2022/04/18 05:07:57;;;;;;;;;;;23.70;43.00;;;;;;1574432;75;1143;-63
2022/04/18 05:10:00;;;;;;;;;;;23.60;42.90;;;;;;1574934;75;1000;-61
2022/04/18 05:12:02;;;;;;;;;;;23.60;42.80;;;;;;1564692;75;798;-61
2022/04/18 05:14:04;;;;;;;;;;;23.60;42.90;;;;;;1565651;75;790;-65
2022/04/18 05:16:06;;;;;;;;;;;23.60;43.00;;;;;;1554489;75;706;-63
2022/04/18 05:18:08;;;;;;;;;;;23.60;43.10;;;;;;1559224;75;1168;-62
2022/04/18 05:20:10;;;;;;;;;;;23.70;43.10;;;;;;1559483;75;1907;-61
2022/04/18 05:22:12;;;;;;;;;;;23.60;42.80;;;;;;1550979;75;768;-61
2022/04/18 05:24:14;;;;;;;;;;;23.60;42.90;;;;;;1562684;76;718;-63
2022/04/18 05:26:16;;;;;;;;;;;23.70;43.00;;;;;;1562924;75;769;-64
2022/04/18 05:28:17;;;;;;;;;;;23.60;42.90;;;;;;1565729;75;1281;-62
2022/04/18 05:30:19;;;;;;;;;;;23.60;42.80;;;;;;1559236;75;714;-63
2022/04/18 05:32:21;;;;;;;;;;;23.60;42.80;;;;;;1562215;75;822;-62
2022/04/18 05:34:23;;;;;;;;;;;23.60;42.80;;;;;;1555992;75;733;-64
2022/04/18 05:36:25;;;;;;;;;;;23.70;42.90;;;;;;1555104;75;1289;-62
2022/04/18 05:38:27;;;;;;;;;;;23.60;42.80;;;;;;1551297;76;1194;-61
2022/04/18 05:40:29;;;;;;;;;;;23.60;42.80;;;;;;1564499;76;1946;-61
2022/04/18 05:42:31;;;;;;;;;;;23.60;42.70;;;;;;1564680;76;870;-60
2022/04/18 05:44:33;;;;;;;;;;;23.70;42.80;;;;;;1564176;76;702;-61
2022/04/18 05:46:35;;;;;;;;;;;23.60;42.60;;;;;;1557639;75;706;-61
2022/04/18 05:48:37;;;;;;;;;;;23.70;42.80;;;;;;1565627;75;1128;-60
2022/04/18 05:50:45;;;;;;;;;;;23.60;42.60;;;;;;1563206;75;676;-62
2022/04/18 05:52:42;;;;;;;;;;;23.60;42.60;;;;;;1559278;75;1650;-61
2022/04/18 05:54:44;;;;;;;;;;;23.70;42.80;;;;;;1558580;75;689;-62
2022/04/18 05:56:46;;;;;;;;;;;23.60;42.60;;;;;;1552908;75;741;-61
2022/04/18 05:58:48;;;;;;;;;;;23.70;42.80;;;;;;1554247;76;1948;-62
2022/04/18 06:00:50;;;;;;;;;;;23.60;42.60;;;;;;1542237;75;690;-61
2022/04/18 06:02:53;;;;;;;;;;;23.60;42.60;;;;;;1559061;75;746;-61
2022/04/18 06:04:55;;;;;;;;;;;23.70;42.70;;;;;;1550963;76;635;-64
2022/04/18 06:06:57;;;;;;;;;;;23.70;42.70;;;;;;1564469;76;640;-61
2022/04/18 06:08:59;;;;;;;;;;;23.60;42.50;;;;;;1564444;76;1161;-61
2022/04/18 06:11:01;;;;;;;;;;;23.70;42.70;;;;;;1560284;75;803;-61
2022/04/18 06:13:04;;;;;;;;;;;23.70;42.70;;;;;;1552823;75;731;-62
2022/04/18 06:15:06;;;;;;;;;;;23.70;42.60;;;;;;1551060;75;805;-62
2022/04/18 06:17:07;;;;;;;;;;;23.70;42.60;;;;;;1559498;75;1161;-62
2022/04/18 06:19:09;;;;;;;;;;;23.70;42.60;;;;;;1554380;75;1928;-62
2022/04/18 06:21:12;;;;;;;;;;;23.70;42.60;;;;;;1566563;75;679;-61
2022/04/18 06:23:17;;;;;;;;;;;23.70;42.60;;;;;;1556364;75;706;-63
2022/04/18 06:25:19;;;;;;;;;;;23.70;42.60;;;;;;1555702;75;736;-61
2022/04/18 06:27:20;;;;;;;;;;;23.70;42.60;;;;;;1557680;75;1102;-62
2022/04/18 06:29:22;;;;;;;;;;;23.70;42.60;;;;;;1552948;75;691;-61
2022/04/18 06:31:24;;;;;;;;;;;23.70;42.60;;;;;;1557206;75;722;-61
2022/04/18 06:33:28;;;;;;;;;;;23.70;42.60;;;;;;1566619;75;808;-61
2022/04/18 06:35:30;;;;;;;;;;;23.70;42.60;;;;;;1554724;75;685;-62
2022/04/18 06:37:35;;;;;;;;;;;23.60;42.50;;;;;;1561929;75;1188;-64
2022/04/18 06:39:37;;;;;;;;;;;23.70;42.60;;;;;;1547506;75;1916;-61
2022/04/18 06:41:38;;;;;;;;;;;23.70;42.50;;;;;;1569985;75;583;-61
2022/04/18 06:43:40;;;;;;;;;;;23.70;42.50;;;;;;1556403;75;722;-64
2022/04/18 06:45:42;;;;;;;;;;;23.70;42.50;;;;;;1548160;76;693;-64
2022/04/18 06:47:44;;;;;;;;;;;23.70;42.60;;;;;;1564144;76;1145;-61
2022/04/18 06:49:48;;;;;;;;;;;23.70;42.60;;;;;;1563926;76;688;-61
2022/04/18 06:51:50;;;;;;;;;;;23.70;42.50;;;;;;1561649;76;671;-61
2022/04/18 06:53:52;;;;;;;;;;;23.80;42.40;;;;;;1556061;76;702;-63
2022/04/18 06:58:13;;;;;;;;;;;23.80;42.40;;;;;;1564050;76;1228;-64
2022/04/18 07:00:16;;;;;;;;;;;23.80;42.40;;;;;;1564291;76;1922;-62
2022/04/18 07:02:17;;;;;;;;;;;23.70;42.40;;;;;;1564160;76;682;-61
2022/04/18 07:04:19;;;;;;;;;;;23.70;42.30;;;;;;1564532;76;721;-62
2022/04/18 07:06:21;;;;;;;;;;;23.70;42.40;;;;;;1563928;76;866;-62
2022/04/18 07:08:23;;;;;;;;;;;23.80;42.30;;;;;;1519915;76;3113;-66
2022/04/18 07:10:25;;;;;;;;;;;23.80;42.30;;;;;;1466923;80;660;-66
2022/04/18 07:12:27;;;;;;;;;;;23.80;42.30;;;;;;1466481;80;687;-66
2022/04/18 07:14:30;;;;;;;;;;;23.80;42.30;;;;;;1459797;80;609;-66
2022/04/18 07:16:32;;;;;;;;;;;23.80;42.20;;;;;;1443553;81;656;-66
2022/04/18 07:18:34;;;;;;;;;;;23.80;42.20;;;;;;1440685;81;1242;-65
2022/04/18 07:20:36;;;;;;;;;;;23.80;42.20;;;;;;1493067;78;1935;-66
2022/04/18 07:22:40;;;;;;;;;;;23.80;42.20;;;;;;1492569;78;770;-65
2022/04/18 07:24:41;;;;;;;;;;;23.90;42.30;;;;;;1487531;78;964;-67
2022/04/18 07:26:44;;;;;;;;;;;23.80;42.10;;;;;;1493622;78;758;-67
2022/04/18 07:28:47;;;;;;;;;;;23.80;42.10;;;;;;1489950;78;1160;-66
2022/04/18 07:30:48;;;;;;;;;;;23.80;42.10;;;;;;1496410;78;729;-67
2022/04/18 07:32:50;;;;;;;;;;;23.90;42.20;;;;;;1496310;78;683;-66
2022/04/18 07:34:53;;;;;;;;;;;23.80;42.10;;;;;;1489597;78;668;-66
2022/04/18 07:36:55;;;;;;;;;;;23.80;42.10;;;;;;1492647;78;678;-66
2022/04/18 07:38:57;;;;;;;;;;;23.80;42.10;;;;;;1497373;78;1177;-65
2022/04/18 07:41:04;;;;;;;;;;;23.90;42.20;;;;;;1502245;78;1910;-66
2022/04/18 07:43:03;;;;;;;;;;;23.80;42.10;;;;;;1490457;78;1568;-66
2022/04/18 07:45:05;;;;;;;;;;;23.90;42.20;;;;;;1492363;78;693;-69
2022/04/18 07:47:07;;;;;;;;;;;23.80;42.10;;;;;;1494949;78;691;-68
2022/04/18 07:49:09;;;;;;;;;;;23.90;42.20;;;;;;1492353;78;1133;-68
2022/04/18 07:53:32;;;;;;;;;;;23.90;42.10;;;;;;1483074;78;1690;-65
2022/04/18 07:55:34;;;;;;;;;;;23.90;42.20;;;;;;1496436;78;655;-67
2022/04/18 07:57:37;;;;;;;;;;;23.90;42.30;;;;;;1489271;78;1138;-69
2022/04/18 07:59:39;;;;;;;;;;;23.90;42.20;;;;;;1494749;78;2014;-68
2022/04/18 08:01:42;;;;;;;;;;;23.90;42.20;;;;;;1501188;78;688;-69
2022/04/18 08:03:43;;;;;;;;;;;23.90;42.20;;;;;;1498867;78;726;-67
2022/04/18 08:05:45;;;;;;;;;;;23.90;42.30;;;;;;1498021;78;629;-67
2022/04/18 08:07:47;;;;;;;;;;;23.90;42.20;;;;;;1492685;78;1157;-69
2022/04/18 08:09:50;;;;;;;;;;;23.90;42.30;;;;;;1488862;78;703;-67
2022/04/18 08:11:52;;;;;;;;;;;24.00;42.20;;;;;;1495889;78;638;-70
2022/04/18 08:13:54;;;;;;;;;;;23.90;42.30;;;;;;1505841;78;696;-70
2022/04/18 08:15:56;;;;;;;;;;;23.90;42.20;;;;;;1492063;78;654;-64
2022/04/18 08:17:58;;;;;;;;;;;23.90;42.20;;;;;;1492564;78;1153;-65
2022/04/18 08:20:00;;;;;;;;;;;23.90;42.10;;;;;;1492659;78;1908;-63
2022/04/18 08:22:02;;;;;;;;;;;23.90;42.10;;;;;;1495008;78;671;-65
2022/04/18 08:24:04;;;;;;;;;;;23.90;42.00;;;;;;1487182;79;725;-65
2022/04/18 08:26:06;;;;;;;;;;;23.90;42.00;;;;;;1492765;78;671;-65
2022/04/18 08:28:08;;;;;;;;;;;23.90;42.00;;;;;;1492852;78;1090;-66
2022/04/18 08:30:10;;;;;;;;;;;24.00;41.90;;;;;;1497279;78;685;-67
2022/04/18 08:32:11;;;;;;;;;;;23.90;41.90;;;;;;1492243;79;685;-64
2022/04/18 08:34:13;;;;;;;;;;;23.90;41.90;;;;;;1488504;79;690;-65
2022/04/18 08:36:15;;;;;;;;;;;23.90;41.90;;;;;;1500690;78;776;-65
2022/04/18 08:38:17;;;;;;;;;;;23.90;41.80;;;;;;1490744;78;1174;-65
2022/04/18 08:40:21;;;;;;;;;;;23.90;41.80;;;;;;1501643;77;1930;-66
2022/04/18 08:42:23;;;;;;;;;;;23.90;41.80;;;;;;1490272;78;1457;-66
2022/04/18 08:44:25;;;;;;;;;;;24.00;41.80;;;;;;1492729;79;793;-65
2022/04/18 08:46:27;;;;;;;;;;;23.90;41.80;;;;;;1489316;78;616;-65
2022/04/18 08:53:10;;;;;;;;;;;24.00;41.70;;;;;;1491169;78;725;-65
2022/04/18 08:55:13;;;;;;;;;;;23.90;41.70;;;;;;1492427;78;705;-65
2022/04/18 08:57:15;;;;;;;;;;;24.00;41.70;;;;;;1492617;78;675;-67
2022/04/18 08:59:16;;;;;;;;;;;23.90;41.60;;;;;;1491596;78;1166;-64
2022/04/18 09:01:18;;;;;;;;;;;24.00;41.70;;;;;;1490554;78;1944;-67
2022/04/18 09:03:20;;;;;;;;;;;24.00;41.70;;;;;;1500334;78;731;-68
2022/04/18 09:05:22;;;;;;;;;;;23.90;41.70;;;;;;1492880;78;716;-66
2022/04/18 09:07:24;;;;;;;;;;;23.90;41.70;;;;;;1493545;78;1209;-64
2022/04/18 09:09:29;;;;;;;;;;;23.90;41.70;;;;;;1493991;78;798;-65
2022/04/18 09:11:31;;;;;;;;;;;23.90;41.70;;;;;;1498307;78;703;-64
2022/04/18 09:13:33;;;;;;;;;;;23.90;41.70;;;;;;1505343;78;678;-67
2022/04/18 09:15:37;;;;;;;;;;;23.90;41.70;;;;;;1499039;78;713;-67
2022/04/18 09:17:39;;;;;;;;;;;23.90;41.70;;;;;;1498899;78;1896;-65
2022/04/18 09:19:41;;;;;;;;;;;23.90;41.80;;;;;;1501800;78;650;-64
2022/04/18 09:21:47;;;;;;;;;;;23.90;41.80;;;;;;1492099;78;1923;-65
2022/04/18 09:23:49;;;;;;;;;;;23.90;41.80;;;;;;1492960;78;1494;-64
2022/04/18 09:25:54;;;;;;;;;;;24.00;41.90;;;;;;1459961;79;702;-65
2022/04/18 09:27:57;;;;;;;;;;;23.90;41.90;;;;;;1490794;78;1175;-64
2022/04/18 09:30:03;;;;;;;;;;;24.00;41.90;;;;;;1488479;78;691;-65
2022/04/18 09:32:09;;;;;;;;;;;23.90;41.90;;;;;;1491126;78;687;-63
2022/04/18 09:34:12;;;;;;;;;;;24.00;42.00;;;;;;1485037;78;693;-62
2022/04/18 09:36:16;;;;;;;;;;;24.00;41.60;;;;;;1491799;78;815;-68
2022/04/18 09:38:18;;;;;;;;;;;24.00;40.90;;;;;;1492495;78;1189;-72
2022/04/18 09:40:24;;;;;;;;;;;24.00;40.70;;;;;;1495107;78;1902;-72
2022/04/18 09:42:29;;;;;;;;;;;24.10;40.40;;;;;;1495878;78;689;-69
2022/04/18 09:44:31;;;;;;;;;;;24.20;37.10;;;;;;1497366;78;702;-67
2022/04/18 09:46:33;;;;;;;;;;;24.20;37.70;;;;;;1488725;78;673;-70
2022/04/18 09:48:35;;;;;;;;;;;24.20;37.30;;;;;;1490437;78;1181;-70
2022/04/18 09:52:57;;;;;;;;;;;24.30;37.30;;;;;;1485624;78;1639;-69
2022/04/18 09:54:59;;;;;;;;;;;24.30;35.60;;;;;;1460112;80;1021;-70
2022/04/18 09:57:07;;;;;;;;;;;24.30;36.90;;;;;;1484710;78;724;-70
2022/04/18 09:59:10;;;;;;;;;;;24.30;36.90;;;;;;1492978;78;1143;-70
2022/04/18 10:01:12;;;;;;;;;;;24.40;36.70;;;;;;1468871;79;1912;-69
2022/04/18 10:03:13;;;;;;;;;;;24.50;36.70;;;;;;1485347;78;730;-69
2022/04/18 10:05:15;;;;;;;;;;;24.40;36.10;;;;;;1488296;78;691;-72
2022/04/18 10:07:17;;;;;;;;;;;24.50;35.80;;;;;;1489393;78;721;-70
2022/04/18 10:09:23;;;;;;;;;;;24.50;36.00;;;;;;1485527;78;1230;-70
2022/04/18 10:11:25;;;;;;;;;;;24.40;35.80;;;;;;1492201;78;727;-72
2022/04/18 10:13:27;;;;;;;;;;;24.50;36.30;;;;;;1503953;78;720;-70
2022/04/18 10:15:29;;;;;;;;;;;24.60;36.50;;;;;;1491152;78;722;-67
2022/04/18 10:17:31;;;;;;;;;;;24.60;36.40;;;;;;1499181;78;1160;-66
2022/04/18 10:19:43;;;;;;;;;;;24.50;36.00;;;;;;1491481;78;679;-66
2022/04/18 10:21:45;;;;;;;;;;;24.60;35.50;;;;;;1488850;78;1939;-68
2022/04/18 10:23:49;;;;;;;;;;;24.40;34.60;;;;;;1491703;78;760;-68
2022/04/18 10:26:11;;;;;;;;;;;24.40;34.90;;;;;;1486850;78;724;-69
2022/04/18 10:28:16;;;;;;;;;;;24.50;34.70;;;;;;1498532;78;1152;-69
2022/04/18 10:30:18;;;;;;;;;;;24.50;34.40;;;;;;1493398;78;661;-68
2022/04/18 10:32:22;;;;;;;;;;;24.50;34.20;;;;;;1492765;78;668;-69
2022/04/18 10:34:24;;;;;;;;;;;24.50;34.40;;;;;;1494049;78;731;-69
2022/04/18 10:36:26;;;;;;;;;;;24.40;33.90;;;;;;1494684;78;629;-69
2022/04/18 10:38:29;;;;;;;;;;;24.50;34.00;;;;;;1499933;78;1177;-68
2022/04/18 10:40:33;;;;;;;;;;;24.50;33.60;;;;;;1491032;78;1931;-67
2022/04/18 10:42:36;;;;;;;;;;;24.50;33.60;;;;;;1499396;78;2019;-67
2022/04/18 10:44:38;;;;;;;;;;;24.40;33.80;;;;;;1496076;78;725;-68
2022/04/18 10:46:42;;;;;;;;;;;24.40;33.70;;;;;;1496907;78;671;-65
2022/04/18 10:48:44;;;;;;;;;;;24.30;33.70;;;;;;1490636;78;1549;-68
2022/04/18 10:50:47;;;;;;;;;;;24.40;33.80;;;;;;1494634;78;682;-70
2022/04/18 10:53:12;;;;;;;;;;;24.30;33.90;;;;;;1500799;78;655;-68
2022/04/18 10:55:12;;;;;;;;;;;24.50;33.80;;;;;;1497751;78;1272;-69
2022/04/18 10:57:14;;;;;;;;;;;24.40;33.60;;;;;;1494571;78;1803;-70
2022/04/18 10:59:17;;;;;;;;;;;24.40;33.50;;;;;;1468192;80;1144;-69
2022/04/18 11:01:19;;;;;;;;;;;24.50;33.50;;;;;;1469024;79;2186;-69
2022/04/18 11:03:37;;;;;;;;;;;24.40;33.40;;;;;;1464920;79;747;-70
2022/04/18 11:05:39;;;;;;;;;;;24.30;33.40;;;;;;1463190;79;698;-68
2022/04/18 11:07:41;;;;;;;;;;;24.40;33.00;;;;;;1439108;82;1145;-68
2022/04/18 11:09:52;;;;;;;;;;;24.30;32.30;;;;;;1474105;79;706;-67
2022/04/18 11:11:54;;;;;;;;;;;24.30;32.70;;;;;;1463725;79;1363;-68
2022/04/18 11:13:56;;;;;;;;;;;24.20;32.60;;;;;;1470978;79;747;-68
2022/04/18 11:16:05;;;;;;;;;;;24.20;32.40;;;;;;1449044;81;667;-68
2022/04/18 11:18:10;;;;;;;;;;;24.00;25.10;;;;;;1491386;78;1105;-68
2022/04/18 11:20:24;;;;;;;;;;;23.50;24.80;;;;;;1483997;78;692;-68
2022/04/18 11:22:26;;;;;;;;;;;23.20;24.30;;;;;;1491428;78;1888;-69
2022/04/18 11:24:38;;;;;;;;;;;23.00;23.90;;;;;;1491898;78;689;-68
2022/04/18 11:26:40;;;;;;;;;;;22.80;24.90;;;;;;1496932;78;679;-65
2022/04/18 11:28:43;;;;;;;;;;;22.80;24.80;;;;;;1490093;78;1095;-67
2022/04/18 11:30:45;;;;;;;;;;;22.60;25.50;;;;;;1493671;78;1472;-66
2022/04/18 11:32:47;;;;;;;;;;;22.60;26.40;;;;;;1492117;78;766;-67
2022/04/18 11:34:50;;;;;;;;;;;22.50;22.80;;;;;;1493562;78;715;-69
2022/04/18 11:36:53;;;;;;;;;;;22.10;24.30;;;;;;1491503;78;1028;-68
2022/04/18 11:39:03;;;;;;;;;;;22.10;23.60;;;;;;1490346;78;1146;-68
2022/04/18 11:41:11;;;;;;;;;;;22.10;26.10;;;;;;1458493;79;1938;-67
2022/04/18 11:43:13;;;;;;;;;;;22.20;25.80;;;;;;1491200;78;708;-68
2022/04/18 11:45:24;;;;;;;;;;;22.20;26.10;;;;;;1492380;78;645;-67
2022/04/18 11:47:30;;;;;;;;;;;22.10;25.10;;;;;;1489846;78;1517;-68
2022/04/18 11:49:33;;;;;;;;;;;22.00;25.50;;;;;;1492440;78;1285;-69
2022/04/18 11:51:42;;;;;;;;;;;22.00;24.30;;;;;;1486939;78;748;-67
2022/04/18 11:53:44;;;;;;;;;;;21.80;23.80;;;;;;1485132;78;719;-66
2022/04/18 11:55:49;;;;;;;;;;;21.60;24.00;;;;;;1488374;78;687;-66
2022/04/18 11:57:50;;;;;;;;;;;21.50;22.80;;;;;;1485337;78;1566;-66
2022/04/18 11:59:52;;;;;;;;;;;21.40;22.80;;;;;;1491802;78;672;-66
2022/04/18 12:06:45;;;;;;;;;;;21.30;23.50;;;;;;1482549;78;1653;-68
2022/04/18 12:08:47;;;;;;;;;;;21.20;22.50;;;;;;1479377;78;1278;-67
2022/04/18 12:10:49;;;;;;;;;;;21.10;22.40;;;;;;1481965;78;772;-67
2022/04/18 12:12:52;;;;;;;;;;;21.00;20.40;;;;;;1476499;78;696;-67
2022/04/18 12:14:54;;;;;;;;;;;20.90;22.40;;;;;;1482389;78;852;-66
2022/04/18 12:16:57;;;;;;;;;;;20.90;22.90;;;;;;1479685;78;753;-69
2022/04/18 12:18:59;;;;;;;;;;;21.00;24.00;;;;;;1482972;78;1842;-66
2022/04/18 12:21:01;;;;;;;;;;;21.20;23.80;;;;;;1494988;78;1939;-67
2022/04/18 12:23:03;;;;;;;;;;;21.00;21.30;;;;;;1487677;78;673;-66
2022/04/18 12:25:05;;;;;;;;;;;21.00;22.10;;;;;;1490152;78;709;-66
2022/04/18 12:27:07;;;;;;;;;;;21.10;24.10;;;;;;1492914;78;702;-66
2022/04/18 12:29:11;;;;;;;;;;;21.10;22.70;;;;;;1487632;78;1129;-67
2022/04/18 12:31:13;;;;;;;;;;;20.90;21.30;;;;;;1489332;78;1333;-66
2022/04/18 12:33:16;;;;;;;;;;;20.80;20.10;;;;;;1490495;78;756;-68
2022/04/18 12:35:37;;;;;;;;;;;20.70;22.30;;;;;;1500257;78;750;-66
2022/04/18 12:37:41;;;;;;;;;;;20.70;23.20;;;;;;1489071;78;1146;-67